Terminal Aerodrome Forecast
Issued by NWS

Home | Current Version | Previous Version | Text Only | Print | Product List | Glossary On
Versions: 1 2 3 4 5 6 7 8 9 10 11 12
757
FTUS43 KMQT 271729
TAFCMX
TAF
KCMX 271729Z 2718/2818 29008KT P6SM SCT150
     FM280000 25004KT P6SM BKN150
     FM281100 19004KT P6SM VCSH OVC050=

USA.gov is the U.S. government's official web portal to all federal, state and local government web resources and services.